Time;durP1;ratioP1;P1;durP2;ratioP2;P2;SDS_P1;SDS_P2;PMS_P1;PMS_P2;Temp;Humidity;BMP_temperature;BMP_pressure;BME280_temperature;BME280_humidity;BME280_pressure;Samples;Min_cycle;Max_cycle;Signal;HPM_P1;HPM_P2
2021/08/15 00:01:05;;;;;;;;;;;25.30;44.90;;;;;;4980422;28;89273;-48
2021/08/15 00:03:31;;;;;;;;;;;25.30;45.00;;;;;;4981032;28;87149;-48
2021/08/15 00:05:56;;;;;;;;;;;25.30;44.90;;;;;;4984730;28;89560;-48
2021/08/15 00:08:22;;;;;;;;;;;25.30;44.90;;;;;;4982831;28;87237;-48
2021/08/15 00:10:48;;;;;;;;;;;25.30;45.00;;;;;;4982144;28;88100;-48
2021/08/15 00:13:13;;;;;;;;;;;25.30;45.10;;;;;;4981422;28;88063;-47
2021/08/15 00:15:39;;;;;;;;;;;25.30;44.80;;;;;;4980396;28;87163;-47
2021/08/15 00:18:04;;;;;;;;;;;25.20;45.00;;;;;;4981314;28;88929;-47
2021/08/15 00:20:30;;;;;;;;;;;25.20;45.60;;;;;;4981483;28;90169;-51
2021/08/15 00:22:55;;;;;;;;;;;25.20;44.90;;;;;;4981467;28;88035;-47
2021/08/15 00:25:21;;;;;;;;;;;25.10;45.00;;;;;;4978720;28;88119;-46
2021/08/15 00:27:47;;;;;;;;;;;25.10;44.80;;;;;;4981753;28;89579;-47
2021/08/15 00:30:14;;;;;;;;;;;25.10;44.90;;;;;;4979606;28;88483;-48
2021/08/15 00:32:40;;;;;;;;;;;25.10;44.90;;;;;;4978021;28;89781;-47
2021/08/15 00:35:06;;;;;;;;;;;25.10;44.90;;;;;;4978843;28;87278;-47
2021/08/15 00:37:32;;;;;;;;;;;25.10;45.00;;;;;;4980311;28;87456;-47
2021/08/15 00:39:57;;;;;;;;;;;25.10;44.90;;;;;;4980283;28;88066;-47
2021/08/15 00:42:23;;;;;;;;;;;25.00;45.00;;;;;;4980785;28;87203;-48
2021/08/15 00:44:49;;;;;;;;;;;25.00;44.90;;;;;;4979642;28;88078;-46
2021/08/15 00:47:14;;;;;;;;;;;25.00;45.10;;;;;;4981760;28;87779;-49
2021/08/15 00:49:40;;;;;;;;;;;24.90;45.70;;;;;;4979500;28;87328;-47
2021/08/15 00:52:06;;;;;;;;;;;25.00;45.10;;;;;;4978999;28;89700;-47
2021/08/15 00:54:33;;;;;;;;;;;24.90;45.00;;;;;;4980178;28;87150;-47
2021/08/15 00:57:00;;;;;;;;;;;24.90;45.10;;;;;;4979425;28;87293;-49
2021/08/15 00:59:26;;;;;;;;;;;24.90;45.20;;;;;;4977514;28;88257;-49
2021/08/15 01:01:52;;;;;;;;;;;24.90;45.10;;;;;;4978412;28;86521;-47
2021/08/15 01:04:18;;;;;;;;;;;24.90;45.20;;;;;;4978348;28;88541;-46
2021/08/15 01:06:43;;;;;;;;;;;24.80;45.00;;;;;;4977545;28;87254;-47
2021/08/15 01:09:09;;;;;;;;;;;24.80;45.10;;;;;;4981332;28;88123;-49
2021/08/15 01:11:36;;;;;;;;;;;24.80;45.20;;;;;;4979519;28;87731;-47
2021/08/15 01:14:02;;;;;;;;;;;24.80;45.10;;;;;;4977452;28;87184;-47
2021/08/15 01:16:28;;;;;;;;;;;24.80;45.00;;;;;;4981845;28;88561;-47
2021/08/15 01:18:53;;;;;;;;;;;24.80;45.00;;;;;;4978284;28;89760;-48
2021/08/15 01:21:19;;;;;;;;;;;24.70;45.10;;;;;;4978178;28;87176;-47
2021/08/15 01:23:45;;;;;;;;;;;24.70;45.10;;;;;;4978714;28;89538;-46
2021/08/15 01:26:12;;;;;;;;;;;24.70;45.30;;;;;;4978586;28;87395;-47
2021/08/15 01:28:38;;;;;;;;;;;24.70;45.20;;;;;;4977654;28;87189;-47
2021/08/15 01:31:03;;;;;;;;;;;24.70;45.10;;;;;;4981032;28;87223;-47
2021/08/15 01:33:30;;;;;;;;;;;24.70;45.20;;;;;;4978609;28;88138;-47
2021/08/15 01:35:56;;;;;;;;;;;24.60;45.20;;;;;;4978887;28;89934;-47
2021/08/15 01:38:22;;;;;;;;;;;24.60;45.20;;;;;;4978912;28;87716;-47
2021/08/15 01:40:48;;;;;;;;;;;24.60;45.30;;;;;;4979362;28;87161;-47
2021/08/15 01:43:14;;;;;;;;;;;24.60;45.10;;;;;;4980093;28;88569;-48
2021/08/15 01:45:39;;;;;;;;;;;24.60;45.20;;;;;;4979751;28;88209;-47
2021/08/15 01:48:05;;;;;;;;;;;24.60;45.40;;;;;;4981204;28;87207;-46
2021/08/15 01:50:30;;;;;;;;;;;24.50;45.30;;;;;;4981641;28;87118;-48
2021/08/15 01:52:56;;;;;;;;;;;24.50;45.30;;;;;;4982721;28;88467;-46
2021/08/15 01:55:21;;;;;;;;;;;24.50;45.30;;;;;;4976933;28;89314;-46
2021/08/15 01:57:47;;;;;;;;;;;24.50;45.20;;;;;;4976276;28;88665;-47
2021/08/15 02:00:13;;;;;;;;;;;24.50;45.30;;;;;;4978158;28;87136;-47
2021/08/15 02:02:44;;;;;;;;;;;24.40;45.20;;;;;;4978038;28;89000;-46
2021/08/15 02:05:11;;;;;;;;;;;24.40;45.40;;;;;;4977256;28;88408;-47
2021/08/15 02:07:36;;;;;;;;;;;24.40;45.40;;;;;;4977085;28;87240;-46
2021/08/15 02:10:03;;;;;;;;;;;24.40;45.30;;;;;;4977344;28;88147;-47
2021/08/15 02:12:29;;;;;;;;;;;24.30;45.30;;;;;;4978675;28;88830;-47
2021/08/15 02:14:54;;;;;;;;;;;24.30;45.40;;;;;;4982504;28;86397;-47
2021/08/15 02:17:20;;;;;;;;;;;24.30;45.30;;;;;;4978137;28;88251;-47
2021/08/15 02:19:45;;;;;;;;;;;24.30;45.30;;;;;;4979097;28;87179;-48
2021/08/15 02:22:11;;;;;;;;;;;24.30;45.50;;;;;;4979741;28;88095;-47
2021/08/15 02:24:36;;;;;;;;;;;24.20;45.40;;;;;;4980118;28;88693;-47
2021/08/15 02:27:02;;;;;;;;;;;24.20;45.40;;;;;;4979699;28;87142;-47
2021/08/15 02:29:27;;;;;;;;;;;24.20;45.60;;;;;;4979058;28;87289;-46
2021/08/15 02:31:53;;;;;;;;;;;24.20;45.50;;;;;;4977863;28;87967;-47
2021/08/15 02:34:19;;;;;;;;;;;24.10;45.50;;;;;;4978341;28;87198;-48
2021/08/15 02:36:44;;;;;;;;;;;24.10;45.40;;;;;;4979824;28;88108;-46
2021/08/15 02:39:10;;;;;;;;;;;24.10;45.60;;;;;;4977394;28;86409;-47
2021/08/15 02:41:35;;;;;;;;;;;24.10;45.50;;;;;;4977660;28;87207;-47
2021/08/15 02:44:01;;;;;;;;;;;24.10;45.40;;;;;;4977688;28;87294;-48
2021/08/15 02:46:26;;;;;;;;;;;24.10;45.60;;;;;;4976607;28;88093;-47
2021/08/15 02:48:52;;;;;;;;;;;24.00;45.50;;;;;;4977226;28;89877;-49
2021/08/15 02:51:18;;;;;;;;;;;24.00;45.50;;;;;;4978082;28;89550;-48
2021/08/15 02:53:43;;;;;;;;;;;24.10;45.70;;;;;;4979643;28;87239;-48
2021/08/15 02:56:09;;;;;;;;;;;24.00;45.60;;;;;;4982172;28;87325;-47
2021/08/15 02:58:34;;;;;;;;;;;24.00;45.60;;;;;;4979370;28;87283;-48
2021/08/15 03:01:00;;;;;;;;;;;24.00;45.70;;;;;;4980434;28;89066;-49
2021/08/15 03:03:25;;;;;;;;;;;23.90;45.50;;;;;;4978638;28;86978;-46
2021/08/15 03:05:51;;;;;;;;;;;23.90;45.50;;;;;;4976364;28;88786;-47
2021/08/15 03:08:16;;;;;;;;;;;23.90;45.60;;;;;;4980399;28;87531;-48
2021/08/15 03:10:42;;;;;;;;;;;23.90;45.60;;;;;;4979611;28;88625;-48
2021/08/15 03:13:07;;;;;;;;;;;23.90;45.70;;;;;;4979485;28;87148;-47
2021/08/15 03:15:33;;;;;;;;;;;23.90;45.60;;;;;;4979157;28;87402;-47
2021/08/15 03:17:59;;;;;;;;;;;23.80;45.40;;;;;;4980607;28;89592;-47
2021/08/15 03:20:24;;;;;;;;;;;23.80;46.40;;;;;;4977238;28;89498;-48
2021/08/15 03:22:50;;;;;;;;;;;23.80;45.60;;;;;;4977694;28;89835;-47
2021/08/15 03:25:15;;;;;;;;;;;23.80;45.50;;;;;;4979302;28;87176;-48
2021/08/15 03:27:41;;;;;;;;;;;23.80;45.50;;;;;;4980267;28;86410;-47
2021/08/15 03:30:06;;;;;;;;;;;23.70;45.60;;;;;;4980499;28;89968;-47
2021/08/15 03:32:32;;;;;;;;;;;23.80;45.70;;;;;;4981741;28;87186;-48
2021/08/15 03:34:58;;;;;;;;;;;23.70;45.70;;;;;;4982220;28;88997;-47
2021/08/15 03:37:23;;;;;;;;;;;23.70;45.60;;;;;;4983091;28;87659;-49
2021/08/15 03:39:49;;;;;;;;;;;23.70;45.70;;;;;;4986431;28;88637;-46
2021/08/15 03:42:14;;;;;;;;;;;23.70;45.50;;;;;;4982350;28;88916;-47
2021/08/15 03:44:40;;;;;;;;;;;23.70;45.70;;;;;;4984074;28;87152;-47
2021/08/15 03:47:05;;;;;;;;;;;23.70;45.60;;;;;;4983105;28;88371;-52
2021/08/15 03:49:31;;;;;;;;;;;23.60;45.60;;;;;;4980505;28;89859;-47
2021/08/15 03:51:56;;;;;;;;;;;23.60;45.70;;;;;;4979672;28;86448;-47
2021/08/15 03:54:22;;;;;;;;;;;23.60;45.60;;;;;;4980101;28;88219;-48
2021/08/15 03:56:48;;;;;;;;;;;23.60;45.70;;;;;;4980245;28;89075;-47
2021/08/15 03:59:15;;;;;;;;;;;23.60;45.60;;;;;;4978763;28;88197;-48
2021/08/15 04:01:40;;;;;;;;;;;23.60;45.80;;;;;;4983628;28;87727;-48
2021/08/15 04:04:06;;;;;;;;;;;23.60;45.70;;;;;;4978626;28;87512;-47
2021/08/15 04:06:34;;;;;;;;;;;23.50;45.80;;;;;;4978407;28;89003;-47
2021/08/15 04:09:01;;;;;;;;;;;23.50;45.50;;;;;;4980851;28;89351;-48
2021/08/15 04:11:27;;;;;;;;;;;23.50;45.70;;;;;;4978647;28;87313;-46
2021/08/15 04:13:52;;;;;;;;;;;23.40;45.80;;;;;;4982290;28;88833;-46
2021/08/15 04:16:18;;;;;;;;;;;23.50;45.80;;;;;;4983437;28;87105;-48
2021/08/15 04:18:43;;;;;;;;;;;23.40;45.70;;;;;;4980081;28;87954;-47
2021/08/15 04:21:09;;;;;;;;;;;23.40;45.70;;;;;;4979100;28;87173;-47
2021/08/15 04:23:35;;;;;;;;;;;23.40;45.80;;;;;;4981577;28;89620;-47
2021/08/15 04:26:01;;;;;;;;;;;23.40;45.70;;;;;;4978467;28;88276;-47
2021/08/15 04:28:26;;;;;;;;;;;23.30;45.70;;;;;;4978422;28;87940;-47
2021/08/15 04:30:52;;;;;;;;;;;23.30;45.70;;;;;;4979962;28;87167;-47
2021/08/15 04:33:20;;;;;;;;;;;23.30;45.90;;;;;;4980500;28;87559;-47
2021/08/15 04:35:46;;;;;;;;;;;23.30;45.70;;;;;;4977298;28;89576;-50
2021/08/15 04:38:11;;;;;;;;;;;23.30;45.80;;;;;;4977988;28;88680;-46
2021/08/15 04:40:37;;;;;;;;;;;23.30;45.90;;;;;;4979609;28;89490;-48
2021/08/15 04:43:02;;;;;;;;;;;23.30;45.90;;;;;;4981157;28;88890;-47
2021/08/15 04:45:28;;;;;;;;;;;23.30;46.00;;;;;;4983146;28;88351;-47
2021/08/15 04:47:53;;;;;;;;;;;23.20;46.00;;;;;;4978173;28;90051;-47
2021/08/15 04:50:19;;;;;;;;;;;23.20;46.10;;;;;;4978347;28;87190;-47
2021/08/15 04:52:44;;;;;;;;;;;23.20;46.00;;;;;;4978673;28;88750;-48
2021/08/15 04:55:10;;;;;;;;;;;23.20;46.70;;;;;;4979492;28;87142;-48
2021/08/15 04:57:36;;;;;;;;;;;23.20;46.10;;;;;;4980946;28;87220;-47
2021/08/15 05:00:02;;;;;;;;;;;23.20;46.00;;;;;;4980943;28;87784;-47
2021/08/15 05:02:28;;;;;;;;;;;23.20;46.20;;;;;;4979662;28;87731;-47
2021/08/15 05:04:53;;;;;;;;;;;23.10;46.10;;;;;;4983743;28;86431;-47
2021/08/15 05:07:19;;;;;;;;;;;23.10;46.30;;;;;;4981415;28;88673;-49
2021/08/15 05:09:44;;;;;;;;;;;23.10;46.20;;;;;;4981737;28;87255;-47
2021/08/15 05:12:10;;;;;;;;;;;23.10;46.20;;;;;;4980470;28;88135;-47
2021/08/15 05:14:35;;;;;;;;;;;23.10;46.20;;;;;;4981117;28;87741;-47
2021/08/15 05:17:01;;;;;;;;;;;23.10;46.40;;;;;;4981123;28;87127;-48
2021/08/15 05:19:26;;;;;;;;;;;23.10;46.40;;;;;;4981426;28;89245;-48
2021/08/15 05:21:52;;;;;;;;;;;23.10;46.40;;;;;;4980795;28;87479;-47
2021/08/15 05:24:17;;;;;;;;;;;23.10;46.50;;;;;;4981381;28;87173;-47
2021/08/15 05:26:43;;;;;;;;;;;23.00;46.40;;;;;;4983321;28;87142;-47
2021/08/15 05:29:09;;;;;;;;;;;23.10;46.50;;;;;;4980206;28;86404;-47
2021/08/15 05:31:35;;;;;;;;;;;23.00;46.50;;;;;;4979416;28;87239;-47
2021/08/15 05:34:00;;;;;;;;;;;23.00;46.60;;;;;;4978413;28;87253;-48
2021/08/15 05:36:26;;;;;;;;;;;23.00;46.60;;;;;;4977475;28;88066;-46
2021/08/15 05:38:51;;;;;;;;;;;23.00;46.60;;;;;;4977154;28;87932;-47
2021/08/15 05:41:17;;;;;;;;;;;23.00;46.70;;;;;;4977612;28;89134;-47
2021/08/15 05:43:42;;;;;;;;;;;23.00;46.80;;;;;;4981363;28;88086;-48
2021/08/15 05:46:08;;;;;;;;;;;23.00;46.70;;;;;;4980376;28;88716;-48
2021/08/15 05:48:33;;;;;;;;;;;23.00;47.40;;;;;;4983299;28;87517;-47
2021/08/15 05:51:01;;;;;;;;;;;23.00;46.90;;;;;;4980224;28;87140;-47
2021/08/15 05:53:26;;;;;;;;;;;22.90;46.80;;;;;;4977363;28;89452;-48
2021/08/15 05:55:52;;;;;;;;;;;23.00;47.00;;;;;;4978249;28;87222;-47
2021/08/15 05:58:17;;;;;;;;;;;23.00;47.00;;;;;;4979421;28;88093;-47
2021/08/15 06:00:43;;;;;;;;;;;22.90;46.90;;;;;;4979228;28;89673;-48
2021/08/15 06:03:08;;;;;;;;;;;22.90;47.00;;;;;;4979521;28;87247;-47
2021/08/15 06:05:34;;;;;;;;;;;22.90;47.00;;;;;;4980075;28;89100;-47
2021/08/15 06:07:59;;;;;;;;;;;23.00;47.10;;;;;;4981009;28;88822;-47
2021/08/15 06:10:25;;;;;;;;;;;23.00;47.00;;;;;;4981163;28;88015;-47
2021/08/15 06:12:50;;;;;;;;;;;23.00;47.10;;;;;;4976163;28;88572;-47
2021/08/15 06:15:16;;;;;;;;;;;23.00;47.10;;;;;;4977775;28;87983;-46
2021/08/15 06:17:42;;;;;;;;;;;22.90;47.10;;;;;;4976999;28;87712;-46
2021/08/15 06:20:08;;;;;;;;;;;22.90;47.10;;;;;;4980683;28;89429;-47
2021/08/15 06:22:41;;;;;;;;;;;23.00;47.10;;;;;;4979520;28;87151;-47
2021/08/15 06:25:07;;;;;;;;;;;22.90;47.10;;;;;;4975777;28;89747;-46
2021/08/15 06:27:33;;;;;;;;;;;22.90;47.20;;;;;;4980102;28;89335;-48
2021/08/15 06:29:59;;;;;;;;;;;22.90;47.40;;;;;;4978517;28;88322;-47
2021/08/15 06:32:24;;;;;;;;;;;22.90;47.20;;;;;;4983114;28;88831;-51
2021/08/15 06:34:50;;;;;;;;;;;22.90;47.20;;;;;;4981256;28;87205;-47
2021/08/15 06:37:15;;;;;;;;;;;22.90;47.10;;;;;;4980299;28;87231;-47
2021/08/15 06:39:41;;;;;;;;;;;22.90;47.20;;;;;;4979356;28;88935;-48
2021/08/15 06:42:06;;;;;;;;;;;22.90;47.30;;;;;;4979469;28;86552;-49
2021/08/15 06:44:32;;;;;;;;;;;22.90;47.30;;;;;;4978182;28;88328;-46
2021/08/15 06:46:57;;;;;;;;;;;22.90;47.20;;;;;;4977124;28;88460;-47
2021/08/15 06:49:23;;;;;;;;;;;23.00;47.30;;;;;;4976108;28;88080;-47
2021/08/15 06:51:48;;;;;;;;;;;22.90;47.20;;;;;;4978568;28;89956;-47
2021/08/15 06:54:14;;;;;;;;;;;22.90;47.30;;;;;;4978111;28;87924;-48
2021/08/15 06:56:41;;;;;;;;;;;22.90;47.30;;;;;;4980208;28;88305;-49
2021/08/15 06:59:07;;;;;;;;;;;22.90;47.40;;;;;;4977345;28;89241;-47
2021/08/15 07:01:33;;;;;;;;;;;22.90;47.40;;;;;;4978149;28;87190;-47
2021/08/15 07:03:58;;;;;;;;;;;22.90;47.50;;;;;;4978809;28;87950;-54
2021/08/15 07:06:24;;;;;;;;;;;22.90;47.50;;;;;;4980573;28;87405;-48
2021/08/15 07:08:49;;;;;;;;;;;22.90;47.50;;;;;;4980510;28;88859;-47
2021/08/15 07:11:15;;;;;;;;;;;22.90;47.60;;;;;;4979404;28;88496;-46
2021/08/15 07:13:40;;;;;;;;;;;22.90;47.70;;;;;;4977797;28;88970;-47
2021/08/15 07:16:06;;;;;;;;;;;22.80;47.70;;;;;;4977493;28;89574;-47
2021/08/15 07:18:31;;;;;;;;;;;22.90;47.80;;;;;;4976259;28;88337;-46
2021/08/15 07:21:00;;;;;;;;;;;22.90;47.80;;;;;;4978453;28;88110;-46
2021/08/15 07:23:25;;;;;;;;;;;22.90;47.80;;;;;;4977171;28;87144;-48
2021/08/15 07:25:51;;;;;;;;;;;22.90;47.80;;;;;;4976012;28;88084;-47
2021/08/15 07:28:17;;;;;;;;;;;22.90;47.80;;;;;;4975643;28;87177;-48
2021/08/15 07:30:42;;;;;;;;;;;22.90;47.80;;;;;;4979637;28;87505;-47
2021/08/15 07:33:08;;;;;;;;;;;22.90;47.80;;;;;;4980317;28;88419;-49
2021/08/15 07:35:34;;;;;;;;;;;22.90;47.70;;;;;;4982645;28;87234;-48
2021/08/15 07:38:00;;;;;;;;;;;22.90;48.40;;;;;;4978817;28;88998;-48
2021/08/15 07:40:26;;;;;;;;;;;22.90;47.80;;;;;;4980213;28;87176;-47
2021/08/15 07:42:53;;;;;;;;;;;22.90;47.80;;;;;;4978654;28;87981;-49
2021/08/15 07:45:20;;;;;;;;;;;22.90;47.80;;;;;;4978236;28;89653;-48
2021/08/15 07:47:45;;;;;;;;;;;22.90;47.80;;;;;;4977318;28;87216;-47
2021/08/15 07:50:11;;;;;;;;;;;22.90;47.90;;;;;;4977217;28;88857;-46
2021/08/15 07:52:37;;;;;;;;;;;22.90;48.00;;;;;;4976047;28;88705;-46
2021/08/15 07:55:02;;;;;;;;;;;22.90;47.90;;;;;;4976146;28;86409;-48
2021/08/15 07:57:30;;;;;;;;;;;22.90;47.80;;;;;;4980717;28;88026;-48
2021/08/15 07:59:56;;;;;;;;;;;22.90;47.90;;;;;;4978561;28;87264;-47
2021/08/15 08:02:21;;;;;;;;;;;22.90;47.90;;;;;;4977612;28;88065;-47
2021/08/15 08:04:49;;;;;;;;;;;22.90;48.00;;;;;;4978591;28;89657;-50
2021/08/15 08:07:17;;;;;;;;;;;22.90;47.90;;;;;;4976802;28;87171;-47
2021/08/15 08:09:43;;;;;;;;;;;22.90;47.90;;;;;;4980224;28;89348;-46
2021/08/15 08:12:08;;;;;;;;;;;22.90;47.90;;;;;;4981121;28;89410;-46
2021/08/15 08:14:34;;;;;;;;;;;22.90;48.00;;;;;;4980874;28;87174;-47
2021/08/15 08:16:59;;;;;;;;;;;22.90;48.00;;;;;;4980887;28;88728;-47
2021/08/15 08:19:25;;;;;;;;;;;22.90;48.00;;;;;;4984094;28;88492;-48
2021/08/15 08:21:50;;;;;;;;;;;22.90;48.00;;;;;;4982109;28;88335;-47
2021/08/15 08:24:16;;;;;;;;;;;22.90;47.90;;;;;;4982583;28;88734;-47
2021/08/15 08:26:41;;;;;;;;;;;22.90;47.90;;;;;;4982056;28;89112;-46
2021/08/15 08:29:07;;;;;;;;;;;23.00;48.00;;;;;;4980967;28;88655;-47
2021/08/15 08:31:32;;;;;;;;;;;23.00;48.00;;;;;;4979596;28;88775;-47
2021/08/15 08:33:58;;;;;;;;;;;23.00;48.00;;;;;;4978628;28;87171;-47
2021/08/15 08:36:23;;;;;;;;;;;23.00;47.90;;;;;;4978874;28;88297;-47
2021/08/15 08:38:49;;;;;;;;;;;23.00;47.90;;;;;;4979571;28;89244;-47
2021/08/15 08:41:15;;;;;;;;;;;23.00;48.00;;;;;;4983596;28;87183;-47
2021/08/15 08:43:41;;;;;;;;;;;23.00;48.00;;;;;;4979101;28;86627;-48
2021/08/15 08:46:08;;;;;;;;;;;23.00;48.10;;;;;;4977963;28;88447;-46
2021/08/15 08:48:34;;;;;;;;;;;23.00;48.00;;;;;;4981104;28;88970;-46
2021/08/15 08:51:00;;;;;;;;;;;23.00;48.00;;;;;;4979813;28;90036;-47
2021/08/15 08:53:26;;;;;;;;;;;23.00;48.20;;;;;;4981716;28;87253;-48
2021/08/15 08:55:51;;;;;;;;;;;23.00;48.10;;;;;;4982396;28;87599;-50
2021/08/15 08:58:17;;;;;;;;;;;23.00;48.00;;;;;;4979694;28;88960;-47
2021/08/15 09:00:43;;;;;;;;;;;23.10;48.00;;;;;;4983962;28;87524;-48
2021/08/15 09:03:08;;;;;;;;;;;23.10;48.00;;;;;;4981343;28;88172;-47
2021/08/15 09:05:35;;;;;;;;;;;23.10;47.90;;;;;;4980724;28;87109;-48
2021/08/15 09:08:01;;;;;;;;;;;23.10;47.70;;;;;;4979352;28;88655;-46
2021/08/15 09:10:33;;;;;;;;;;;23.20;47.80;;;;;;4977652;28;87886;-48
2021/08/15 09:13:03;;;;;;;;;;;23.20;47.70;;;;;;4980707;28;87164;-47
2021/08/15 09:15:30;;;;;;;;;;;23.20;47.70;;;;;;4980015;28;88072;-47
2021/08/15 09:17:56;;;;;;;;;;;23.20;47.50;;;;;;4978657;28;89447;-47
2021/08/15 09:20:25;;;;;;;;;;;23.20;47.50;;;;;;4978005;28;87118;-47
2021/08/15 09:22:50;;;;;;;;;;;23.20;47.50;;;;;;4982804;28;87798;-47
2021/08/15 09:25:19;;;;;;;;;;;23.30;47.30;;;;;;4980439;28;87143;-47
2021/08/15 09:27:47;;;;;;;;;;;23.30;47.30;;;;;;4977997;28;87288;-47
2021/08/15 09:30:26;;;;;;;;;;;23.30;47.00;;;;;;4981329;28;88449;-48
2021/08/15 09:32:51;;;;;;;;;;;23.30;47.00;;;;;;4978437;28;86506;-48
2021/08/15 09:35:21;;;;;;;;;;;23.30;47.00;;;;;;4977784;28;88437;-47
2021/08/15 09:37:52;;;;;;;;;;;23.40;46.90;;;;;;4977335;28;89232;-47
2021/08/15 09:40:26;;;;;;;;;;;23.30;46.70;;;;;;4978233;28;88960;-50
2021/08/15 09:42:51;;;;;;;;;;;23.40;46.70;;;;;;4978739;28;90154;-47
2021/08/15 09:45:30;;;;;;;;;;;23.40;46.60;;;;;;4980708;28;88201;-47
2021/08/15 09:47:55;;;;;;;;;;;23.40;46.60;;;;;;4981027;28;88373;-48
2021/08/15 09:50:23;;;;;;;;;;;23.40;46.40;;;;;;4980065;28;88700;-47
2021/08/15 09:52:49;;;;;;;;;;;23.40;46.30;;;;;;4977065;28;87223;-47
2021/08/15 09:55:14;;;;;;;;;;;23.50;46.30;;;;;;4980483;28;88720;-47
2021/08/15 09:57:40;;;;;;;;;;;23.50;45.80;;;;;;4980460;28;88735;-47
2021/08/15 10:00:25;;;;;;;;;;;23.50;45.70;;;;;;4977026;28;88317;-48
2021/08/15 10:02:51;;;;;;;;;;;23.50;45.70;;;;;;4978623;28;88849;-51
2021/08/15 10:05:17;;;;;;;;;;;23.50;45.70;;;;;;4980193;28;89462;-48
2021/08/15 10:07:43;;;;;;;;;;;23.60;45.30;;;;;;4983974;28;87190;-48
2021/08/15 10:10:12;;;;;;;;;;;23.60;45.30;;;;;;4979283;28;88840;-47
2021/08/15 10:12:37;;;;;;;;;;;23.60;45.20;;;;;;4979712;28;87181;-48
2021/08/15 10:15:04;;;;;;;;;;;23.60;44.70;;;;;;4976681;28;88511;-51
2021/08/15 10:17:30;;;;;;;;;;;23.60;44.60;;;;;;4980009;28;87782;-47
2021/08/15 10:20:00;;;;;;;;;;;23.70;44.30;;;;;;4979378;28;87198;-47
2021/08/15 10:22:27;;;;;;;;;;;23.70;44.40;;;;;;4981086;28;87328;-48
2021/08/15 10:24:53;;;;;;;;;;;23.70;44.60;;;;;;4977592;28;88289;-47
2021/08/15 10:27:38;;;;;;;;;;;23.70;44.60;;;;;;4977469;28;88688;-47
2021/08/15 10:30:03;;;;;;;;;;;23.70;44.80;;;;;;4979396;28;88120;-46
2021/08/15 10:32:29;;;;;;;;;;;23.80;43.90;;;;;;4976449;28;87171;-48
2021/08/15 10:35:11;;;;;;;;;;;23.80;44.20;;;;;;4976627;28;88689;-50
2021/08/15 10:37:36;;;;;;;;;;;23.80;44.30;;;;;;4979590;28;88119;-48
2021/08/15 10:40:03;;;;;;;;;;;23.80;43.80;;;;;;4980009;28;88000;-47
2021/08/15 10:42:37;;;;;;;;;;;23.80;44.20;;;;;;4979897;28;88959;-48
2021/08/15 10:45:05;;;;;;;;;;;23.90;44.30;;;;;;4980376;28;88162;-47
2021/08/15 10:47:30;;;;;;;;;;;23.90;44.10;;;;;;4978067;28;86452;-47
2021/08/15 10:50:02;;;;;;;;;;;23.90;44.00;;;;;;4976996;28;87128;-49
2021/08/15 10:52:30;;;;;;;;;;;23.90;43.80;;;;;;4983133;28;89429;-49
2021/08/15 10:54:59;;;;;;;;;;;23.90;44.30;;;;;;4976679;28;88857;-47
2021/08/15 10:57:45;;;;;;;;;;;23.90;44.30;;;;;;4977757;28;90014;-48
2021/08/15 11:00:26;;;;;;;;;;;24.00;44.00;;;;;;4977019;28;87186;-47
2021/08/15 11:02:51;;;;;;;;;;;24.00;43.90;;;;;;4977774;28;87646;-47
2021/08/15 11:05:33;;;;;;;;;;;24.10;44.40;;;;;;4978162;28;89669;-47
2021/08/15 11:07:58;;;;;;;;;;;24.10;44.30;;;;;;4977307;28;87224;-47
2021/08/15 11:10:24;;;;;;;;;;;24.10;43.90;;;;;;4976768;28;87390;-47
2021/08/15 11:13:08;;;;;;;;;;;24.10;44.00;;;;;;4979283;28;87404;-46
2021/08/15 11:15:33;;;;;;;;;;;24.10;44.50;;;;;;4978685;28;87244;-47
2021/08/15 11:18:09;;;;;;;;;;;24.20;44.80;;;;;;4977569;28;87350;-47
2021/08/15 11:20:41;;;;;;;;;;;24.20;44.10;;;;;;4975588;28;88088;-47
2021/08/15 11:23:09;;;;;;;;;;;24.20;44.10;;;;;;4977905;28;88667;-48
2021/08/15 11:25:35;;;;;;;;;;;24.20;44.10;;;;;;4978771;28;88202;-49
2021/08/15 11:28:00;;;;;;;;;;;24.20;44.40;;;;;;4980306;28;87341;-48
2021/08/15 11:30:26;;;;;;;;;;;24.30;44.50;;;;;;4978355;28;88784;-48
2021/08/15 11:32:53;;;;;;;;;;;24.30;44.10;;;;;;4975506;28;87483;-47
2021/08/15 11:35:18;;;;;;;;;;;24.30;44.40;;;;;;4978892;28;87990;-46
2021/08/15 11:37:48;;;;;;;;;;;24.30;44.60;;;;;;4976332;28;87982;-47
2021/08/15 11:40:21;;;;;;;;;;;24.30;44.60;;;;;;4977059;28;87195;-47
2021/08/15 11:43:08;;;;;;;;;;;24.30;44.40;;;;;;4979612;28;87178;-47
2021/08/15 11:45:55;;;;;;;;;;;24.40;44.10;;;;;;4977636;28;90451;-47
2021/08/15 11:48:22;;;;;;;;;;;24.40;44.30;;;;;;4983551;28;87108;-48
2021/08/15 11:50:49;;;;;;;;;;;24.40;43.60;;;;;;4981010;28;87441;-47
2021/08/15 11:53:19;;;;;;;;;;;24.50;44.00;;;;;;4979832;28;89510;-47
2021/08/15 11:55:45;;;;;;;;;;;24.50;44.40;;;;;;4982043;28;87187;-48
2021/08/15 11:58:11;;;;;;;;;;;24.50;44.70;;;;;;4983981;28;88655;-47
2021/08/15 12:00:37;;;;;;;;;;;24.50;43.80;;;;;;4982429;28;87139;-48
2021/08/15 12:03:04;;;;;;;;;;;24.60;44.30;;;;;;4983450;28;87668;-48
2021/08/15 12:05:30;;;;;;;;;;;24.50;44.30;;;;;;4980047;28;89521;-47
2021/08/15 12:08:06;;;;;;;;;;;24.60;43.90;;;;;;4980565;28;87130;-47
2021/08/15 12:10:36;;;;;;;;;;;24.60;44.30;;;;;;4979549;28;88702;-47
2021/08/15 12:13:11;;;;;;;;;;;24.60;44.30;;;;;;4980253;28;88156;-47
2021/08/15 12:15:37;;;;;;;;;;;24.60;43.60;;;;;;4981861;28;87134;-47
2021/08/15 12:18:03;;;;;;;;;;;24.70;44.10;;;;;;4982618;28;87201;-48
2021/08/15 12:20:28;;;;;;;;;;;24.70;44.00;;;;;;4985274;28;88368;-49
2021/08/15 12:23:03;;;;;;;;;;;24.70;44.10;;;;;;4979611;28;87392;-47
2021/08/15 12:25:29;;;;;;;;;;;24.70;44.20;;;;;;4979930;28;88179;-47
2021/08/15 12:28:05;;;;;;;;;;;24.80;43.90;;;;;;4981537;28;86532;-47
2021/08/15 12:30:31;;;;;;;;;;;24.80;43.40;;;;;;4980277;28;88305;-48
2021/08/15 12:32:56;;;;;;;;;;;24.80;43.80;;;;;;4979742;28;89446;-47
2021/08/15 12:35:28;;;;;;;;;;;24.80;43.80;;;;;;4980622;28;88076;-47
2021/08/15 12:37:53;;;;;;;;;;;24.90;44.00;;;;;;4981053;28;88414;-47
2021/08/15 12:40:26;;;;;;;;;;;24.80;43.90;;;;;;4980714;28;89707;-46
2021/08/15 12:42:52;;;;;;;;;;;24.90;42.50;;;;;;4982249;28;87185;-47
2021/08/15 12:45:28;;;;;;;;;;;25.30;40.00;;;;;;4978210;28;88366;-55
2021/08/15 12:47:58;;;;;;;;;;;25.70;39.80;;;;;;4982736;28;87234;-51
2021/08/15 12:50:25;;;;;;;;;;;25.80;39.50;;;;;;4982823;28;87583;-52
2021/08/15 12:52:52;;;;;;;;;;;25.90;38.80;;;;;;4980918;28;86458;-52
2021/08/15 12:55:23;;;;;;;;;;;26.00;39.30;;;;;;4977548;28;87145;-51
2021/08/15 12:57:52;;;;;;;;;;;26.00;39.90;;;;;;4982540;28;88427;-52
2021/08/15 13:00:18;;;;;;;;;;;26.00;39.90;;;;;;4978677;28;89092;-59
2021/08/15 13:02:45;;;;;;;;;;;26.10;38.80;;;;;;4978406;28;87189;-57
2021/08/15 13:05:11;;;;;;;;;;;26.10;39.00;;;;;;4984686;28;87903;-47
2021/08/15 13:07:37;;;;;;;;;;;26.20;38.40;;;;;;4981432;28;87173;-47
2021/08/15 13:10:03;;;;;;;;;;;26.10;38.40;;;;;;4982208;28;87205;-50
2021/08/15 13:12:28;;;;;;;;;;;25.90;38.80;;;;;;4981118;28;90029;-47
2021/08/15 13:14:54;;;;;;;;;;;25.90;39.50;;;;;;4980672;28;87193;-47
2021/08/15 13:17:20;;;;;;;;;;;25.80;39.30;;;;;;4981999;28;87271;-46
2021/08/15 13:19:46;;;;;;;;;;;25.70;39.70;;;;;;4978851;28;89360;-48
2021/08/15 13:22:12;;;;;;;;;;;25.80;40.00;;;;;;4979277;28;87157;-47
2021/08/15 13:24:38;;;;;;;;;;;25.70;40.20;;;;;;4982273;28;88155;-46
2021/08/15 13:27:04;;;;;;;;;;;25.70;40.10;;;;;;4979479;28;87162;-46
2021/08/15 13:29:30;;;;;;;;;;;25.80;39.90;;;;;;4978751;28;87577;-48
2021/08/15 13:31:55;;;;;;;;;;;26.10;39.20;;;;;;4978789;28;88233;-52
2021/08/15 13:34:21;;;;;;;;;;;26.40;38.30;;;;;;4979295;28;87531;-50
2021/08/15 13:36:47;;;;;;;;;;;26.50;37.30;;;;;;4979989;28;87618;-46
2021/08/15 13:39:12;;;;;;;;;;;26.60;37.00;;;;;;4980779;28;89749;-46
2021/08/15 13:41:38;;;;;;;;;;;26.70;38.20;;;;;;4982529;28;86512;-49
2021/08/15 13:44:04;;;;;;;;;;;26.80;37.30;;;;;;4979668;28;87681;-46
2021/08/15 13:46:30;;;;;;;;;;;26.80;37.30;;;;;;4981500;28;89584;-48
2021/08/15 13:48:55;;;;;;;;;;;26.90;36.50;;;;;;4980366;28;89551;-52
2021/08/15 13:51:21;;;;;;;;;;;26.90;36.50;;;;;;4978625;28;88302;-56
2021/08/15 13:53:46;;;;;;;;;;;27.00;36.50;;;;;;4976994;28;87145;-48
2021/08/15 13:56:12;;;;;;;;;;;26.90;36.30;;;;;;4977296;28;88138;-49
2021/08/15 13:58:38;;;;;;;;;;;27.00;37.40;;;;;;4977783;28;88240;-51
2021/08/15 14:01:03;;;;;;;;;;;27.20;35.70;;;;;;4977271;28;87149;-48
2021/08/15 14:03:29;;;;;;;;;;;27.20;35.90;;;;;;4976964;28;87647;-55
2021/08/15 14:05:54;;;;;;;;;;;27.10;36.20;;;;;;4977774;28;87468;-48
2021/08/15 14:08:20;;;;;;;;;;;27.10;36.60;;;;;;4980725;28;87149;-51
2021/08/15 14:10:47;;;;;;;;;;;27.10;37.10;;;;;;4977714;28;88314;-45
2021/08/15 14:13:13;;;;;;;;;;;27.00;36.60;;;;;;4977590;28;88093;-44